Time;durP1;ratioP1;P1;durP2;ratioP2;P2;SDS_P1;SDS_P2;PMS_P1;PMS_P2;Temp;Humidity;BMP_temperature;BMP_pressure;BME280_temperature;BME280_humidity;BME280_pressure;Samples;Min_cycle;Max_cycle;Signal;HPM_P1;HPM_P2
2021/12/31 00:00:40;;;;;;;1.47;0.90;;;;;;;5.17;100.00;97121.81;5042545;28;20232;-86
2021/12/31 00:03:08;;;;;;;2.53;1.40;;;;;;;5.12;100.00;97116.16;5037219;28;20210;-85
2021/12/31 00:05:35;;;;;;;1.40;1.20;;;;;;;5.10;100.00;97113.66;5041718;28;20292;-85
2021/12/31 00:08:02;;;;;;;1.40;0.90;;;;;;;5.08;100.00;97120.19;5042217;28;20384;-86
2021/12/31 00:10:29;;;;;;;1.57;1.20;;;;;;;5.09;100.00;97117.34;5043460;28;20233;-85
2021/12/31 00:12:56;;;;;;;1.17;0.83;;;;;;;5.05;100.00;97110.66;5039946;28;20209;-85
2021/12/31 00:15:24;;;;;;;0.93;0.80;;;;;;;5.06;100.00;97115.03;5037323;28;20213;-85
2021/12/31 00:17:52;;;;;;;1.50;1.30;;;;;;;4.99;100.00;97111.38;5035304;28;20229;-86
2021/12/31 00:20:23;;;;;;;1.30;1.10;;;;;;;4.96;100.00;97111.72;5042523;28;20232;-85
2021/12/31 00:23:08;;;;;;;1.60;1.17;;;;;;;4.93;100.00;97117.47;5036943;28;20213;-85
2021/12/31 00:25:37;;;;;;;1.10;1.00;;;;;;;4.92;100.00;97105.91;5042003;28;20256;-86
2021/12/31 00:28:04;;;;;;;1.33;1.13;;;;;;;4.92;100.00;97102.41;5047717;28;20229;-86
2021/12/31 00:30:34;;;;;;;1.23;1.00;;;;;;;4.89;100.00;97105.44;5041987;28;20205;-85
2021/12/31 00:33:04;;;;;;;1.93;0.83;;;;;;;4.93;100.00;97110.22;5057523;28;20216;-86
2021/12/31 00:35:32;;;;;;;2.13;1.00;;;;;;;5.00;100.00;97102.34;5031328;28;20293;-86
2021/12/31 00:37:59;;;;;;;0.70;0.70;;;;;;;5.03;100.00;97101.16;5045451;28;20235;-86
2021/12/31 00:40:27;;;;;;;0.90;0.80;;;;;;;5.08;100.00;97099.63;5043020;28;20208;-86
2021/12/31 00:42:55;;;;;;;2.20;0.90;;;;;;;5.08;100.00;97104.97;5060441;28;20205;-85
2021/12/31 00:45:25;;;;;;;1.47;0.90;;;;;;;5.03;100.00;97104.66;5038004;28;20206;-85
2021/12/31 00:47:52;;;;;;;1.20;1.10;;;;;;;5.03;100.00;97088.59;5038978;28;20214;-86
2021/12/31 00:50:21;;;;;;;2.50;0.90;;;;;;;5.03;100.00;97095.78;5046272;28;20296;-86
2021/12/31 00:52:49;;;;;;;0.80;0.80;;;;;;;5.05;100.00;97107.16;5055696;28;20212;-85
2021/12/31 00:55:16;;;;;;;0.60;0.60;;;;;;;5.09;100.00;97098.63;5041886;28;20209;-85
2021/12/31 00:57:43;;;;;;;0.70;0.70;;;;;;;5.07;100.00;97097.94;5049578;28;20316;-86
2021/12/31 01:00:14;;;;;;;2.67;0.97;;;;;;;5.08;100.00;97099.63;5044341;28;20209;-85
2021/12/31 01:02:43;;;;;;;1.00;0.73;;;;;;;5.07;100.00;97110.50;5037530;28;20209;-86
2021/12/31 01:05:11;;;;;;;0.87;0.50;;;;;;;5.07;100.00;97107.81;5040164;28;20202;-85
2021/12/31 01:07:41;;;;;;;0.87;0.70;;;;;;;5.10;100.00;97111.00;5047232;28;20225;-85
2021/12/31 01:10:12;;;;;;;0.70;0.70;;;;;;;5.11;100.00;97120.66;5038151;28;20213;-86
2021/12/31 01:12:40;;;;;;;0.63;0.63;;;;;;;5.07;100.00;97119.38;5043160;28;20251;-85
2021/12/31 01:15:11;;;;;;;0.90;0.70;;;;;;;5.01;100.00;97116.56;5058292;28;20216;-85
2021/12/31 01:18:03;;;;;;;1.03;0.70;;;;;;;4.99;100.00;97126.63;5040082;28;20221;-86
2021/12/31 01:20:31;;;;;;;0.70;0.70;;;;;;;4.90;100.00;97133.84;5045348;28;20236;-86
2021/12/31 01:23:01;;;;;;;0.80;0.80;;;;;;;4.90;100.00;97147.22;5051869;28;20205;-86
2021/12/31 01:25:28;;;;;;;1.40;0.93;;;;;;;4.86;100.00;97143.22;5037831;28;20233;-85
2021/12/31 01:27:55;;;;;;;0.80;0.80;;;;;;;4.88;100.00;97149.25;5043948;28;20229;-86
2021/12/31 01:30:23;;;;;;;0.70;0.60;;;;;;;4.87;100.00;97147.56;5044144;28;20209;-86
2021/12/31 01:32:50;;;;;;;1.50;1.03;;;;;;;4.83;100.00;97143.59;5043594;28;20281;-86
2021/12/31 01:35:18;;;;;;;4.53;1.00;;;;;;;4.82;100.00;97141.94;5043954;28;20225;-85
2021/12/31 01:37:45;;;;;;;1.03;0.90;;;;;;;4.81;100.00;97135.75;5055769;28;20269;-85
2021/12/31 01:40:15;;;;;;;0.80;0.70;;;;;;;4.78;100.00;97140.59;5041005;28;20220;-86
2021/12/31 01:42:42;;;;;;;0.67;0.67;;;;;;;4.73;100.00;97145.66;5033669;28;20230;-86
2021/12/31 01:45:14;;;;;;;0.73;0.70;;;;;;;4.71;100.00;97123.56;5040128;28;20304;-85
2021/12/31 01:47:59;;;;;;;1.37;0.90;;;;;;;4.80;100.00;97135.91;5055020;28;20201;-85
2021/12/31 01:50:29;;;;;;;1.33;0.80;;;;;;;4.81;100.00;97132.22;5036616;28;20218;-86
2021/12/31 01:52:57;;;;;;;1.33;0.70;;;;;;;4.81;100.00;97130.38;5037265;28;20210;-85
2021/12/31 01:55:28;;;;;;;1.17;0.80;;;;;;;4.79;100.00;97132.41;5042468;28;20273;-85
2021/12/31 01:57:55;;;;;;;0.70;0.70;;;;;;;4.73;100.00;97121.56;5038678;28;20218;-85
2021/12/31 02:00:23;;;;;;;0.73;0.73;;;;;;;4.64;100.00;97119.94;5036168;28;20213;-86
2021/12/31 02:02:51;;;;;;;1.97;0.90;;;;;;;4.64;100.00;97111.91;5039843;28;20210;-85
2021/12/31 02:05:22;;;;;;;0.53;0.53;;;;;;;4.70;100.00;97105.84;5043580;28;20208;-85
2021/12/31 02:07:49;;;;;;;0.80;0.60;;;;;;;4.83;100.00;97106.97;5037237;28;20217;-85
2021/12/31 02:10:16;;;;;;;0.70;0.70;;;;;;;4.91;100.00;97104.25;5043697;28;20300;-85
2021/12/31 02:12:46;;;;;;;0.90;0.60;;;;;;;4.92;100.00;97099.72;5045410;28;20197;-85
2021/12/31 02:15:14;;;;;;;1.73;0.70;;;;;;;4.91;100.00;97087.34;5043607;28;20232;-85
2021/12/31 02:17:44;;;;;;;2.93;0.80;;;;;;;4.86;100.00;97087.03;5043931;28;20201;-85
2021/12/31 02:20:14;;;;;;;0.80;0.80;;;;;;;4.86;100.00;97084.34;5041642;28;20206;-85
2021/12/31 02:22:50;;;;;;;0.80;0.80;;;;;;;4.88;100.00;97079.66;5052946;28;20213;-85
2021/12/31 02:25:18;;;;;;;1.37;0.67;;;;;;;4.87;100.00;97069.97;5041497;28;20270;-85
2021/12/31 02:27:46;;;;;;;0.70;0.70;;;;;;;4.84;100.00;97065.00;5055683;28;20674;-85
2021/12/31 02:30:13;;;;;;;3.17;0.50;;;;;;;4.84;100.00;97067.66;5044241;28;20214;-86
2021/12/31 02:32:41;;;;;;;0.50;0.50;;;;;;;4.80;100.00;97064.50;5044288;28;20241;-85
2021/12/31 02:35:11;;;;;;;0.50;0.50;;;;;;;4.79;100.00;97064.66;5048475;28;20201;-85
2021/12/31 02:37:40;;;;;;;0.60;0.60;;;;;;;4.83;100.00;97052.63;5056801;28;20205;-85
2021/12/31 02:40:10;;;;;;;1.30;0.80;;;;;;;4.94;100.00;97054.88;5057513;28;20197;-86
2021/12/31 02:42:37;;;;;;;1.43;0.50;;;;;;;5.02;100.00;97038.75;5062310;28;20205;-86
2021/12/31 02:45:07;;;;;;;0.70;0.50;;;;;;;5.01;100.00;97030.94;5042760;28;20216;-85
2021/12/31 02:47:35;;;;;;;0.60;0.60;;;;;;;5.05;100.00;97035.72;5046763;28;20237;-86
2021/12/31 02:50:04;;;;;;;0.63;0.63;;;;;;;5.07;100.00;97030.19;5044952;28;20310;-86
2021/12/31 02:52:32;;;;;;;0.50;0.50;;;;;;;5.05;100.00;97025.03;5049634;28;20209;-85
2021/12/31 02:55:04;;;;;;;0.87;0.50;;;;;;;5.01;100.00;97023.72;5038047;28;20210;-85
2021/12/31 02:57:31;;;;;;;0.50;0.50;;;;;;;4.99;100.00;97019.56;5043868;28;20343;-86
2021/12/31 02:59:59;;;;;;;1.67;0.70;;;;;;;4.95;100.00;97014.56;5046507;28;20212;-85
2021/12/31 03:02:28;;;;;;;0.60;0.60;;;;;;;4.89;100.00;97017.13;5045056;28;20209;-85
2021/12/31 03:04:58;;;;;;;0.73;0.70;;;;;;;4.84;100.00;97022.19;5046679;28;20286;-86
2021/12/31 03:07:27;;;;;;;1.63;0.80;;;;;;;4.76;100.00;97006.19;5043899;28;20205;-85
2021/12/31 03:09:54;;;;;;;0.60;0.60;;;;;;;4.72;100.00;97012.88;5059358;28;20224;-85
2021/12/31 03:12:24;;;;;;;0.80;0.70;;;;;;;4.60;100.00;97008.94;5044612;28;20292;-85
2021/12/31 03:14:51;;;;;;;1.10;0.60;;;;;;;4.57;100.00;96994.94;5039003;28;20209;-86
2021/12/31 03:17:21;;;;;;;1.40;0.87;;;;;;;4.52;100.00;97007.97;5047540;28;20213;-86
2021/12/31 03:19:48;;;;;;;2.10;0.90;;;;;;;4.51;100.00;97006.31;5062505;28;20220;-85
2021/12/31 03:22:16;;;;;;;1.10;0.90;;;;;;;4.48;100.00;97011.19;5038190;28;20233;-86
2021/12/31 03:24:44;;;;;;;1.47;1.00;;;;;;;4.55;100.00;97009.47;5041146;28;20212;-86
2021/12/31 03:27:11;;;;;;;1.33;1.10;;;;;;;4.45;100.00;97009.72;5037268;28;20313;-85
2021/12/31 03:29:39;;;;;;;2.43;1.30;;;;;;;4.40;100.00;97004.06;5047743;28;20308;-85
2021/12/31 03:32:07;;;;;;;1.77;1.27;;;;;;;4.32;100.00;97003.28;5039407;28;20248;-85
2021/12/31 03:34:34;;;;;;;1.00;0.90;;;;;;;4.27;100.00;97003.78;5044665;28;20224;-85
2021/12/31 03:37:01;;;;;;;3.07;1.10;;;;;;;4.24;100.00;97012.19;5043685;28;20568;-86
2021/12/31 03:39:28;;;;;;;1.33;1.00;;;;;;;4.23;100.00;97018.53;5042027;28;20293;-86
2021/12/31 03:41:55;;;;;;;1.50;1.37;;;;;;;4.20;100.00;97024.22;5045110;28;20231;-86
2021/12/31 03:44:23;;;;;;;1.13;1.03;;;;;;;4.15;100.00;97010.53;5046000;28;20237;-86
2021/12/31 03:46:51;;;;;;;1.77;0.80;;;;;;;4.14;100.00;97015.06;5051638;28;20206;-85
2021/12/31 03:49:18;;;;;;;1.10;1.00;;;;;;;4.14;100.00;97016.88;5037832;28;20257;-86
2021/12/31 03:51:46;;;;;;;1.30;0.87;;;;;;;4.12;100.00;97014.38;5045521;28;20324;-85
2021/12/31 03:54:13;;;;;;;1.13;1.00;;;;;;;4.03;100.00;97010.09;5059047;28;20213;-86
2021/12/31 03:56:40;;;;;;;1.37;0.87;;;;;;;4.00;100.00;97017.59;5049256;28;20205;-86
2021/12/31 03:59:07;;;;;;;0.90;0.90;;;;;;;3.97;100.00;97012.63;5038561;28;20198;-85
2021/12/31 04:01:34;;;;;;;0.80;0.80;;;;;;;4.01;100.00;97008.56;5042514;28;20216;-85
2021/12/31 04:04:03;;;;;;;1.20;0.87;;;;;;;3.93;100.00;96996.09;5034751;28;20206;-85
2021/12/31 04:06:30;;;;;;;1.27;0.70;;;;;;;3.95;100.00;97014.63;5035476;28;20210;-86
2021/12/31 04:08:58;;;;;;;0.83;0.83;;;;;;;3.91;100.00;97018.66;5059811;28;20233;-85
2021/12/31 04:11:25;;;;;;;0.70;0.70;;;;;;;3.88;100.00;97008.31;5039419;28;20240;-85
2021/12/31 04:13:52;;;;;;;1.07;1.00;;;;;;;3.86;100.00;97010.31;5059614;28;20304;-85
2021/12/31 04:16:19;;;;;;;0.70;0.70;;;;;;;3.94;100.00;97007.59;5045097;28;20288;-86
2021/12/31 04:18:47;;;;;;;0.60;0.60;;;;;;;3.91;100.00;97002.63;5044624;28;20225;-85
2021/12/31 04:21:17;;;;;;;1.23;1.07;;;;;;;3.90;100.00;97007.16;5045026;28;20237;-86
2021/12/31 04:24:05;;;;;;;1.40;0.87;;;;;;;3.88;100.00;97008.31;5049582;28;20546;-85
2021/12/31 04:26:32;;;;;;;0.90;0.90;;;;;;;3.76;100.00;97000.66;5046556;28;20227;-85
2021/12/31 04:28:59;;;;;;;1.27;0.90;;;;;;;3.72;100.00;97012.72;5040890;28;20307;-85
2021/12/31 04:31:26;;;;;;;0.80;0.80;;;;;;;3.73;100.00;97002.84;5058823;28;20509;-85
2021/12/31 04:33:54;;;;;;;2.17;0.80;;;;;;;3.70;100.00;97003.19;5040589;28;20201;-85
2021/12/31 04:36:23;;;;;;;1.00;0.90;;;;;;;3.69;100.00;97006.84;5036911;28;20284;-86
2021/12/31 04:38:50;;;;;;;3.20;1.90;;;;;;;3.71;100.00;97019.03;5043966;28;20301;-85
2021/12/31 04:41:17;;;;;;;1.67;1.17;;;;;;;3.66;100.00;97013.38;5056263;28;20209;-85
2021/12/31 04:43:44;;;;;;;2.00;1.10;;;;;;;3.57;100.00;97009.09;5042075;28;20220;-85
2021/12/31 04:46:11;;;;;;;3.50;1.73;;;;;;;3.60;100.00;97024.75;5040005;28;20221;-85
2021/12/31 04:48:39;;;;;;;1.47;1.03;;;;;;;3.59;100.00;97017.72;5040387;28;20216;-85
2021/12/31 04:51:06;;;;;;;2.87;2.57;;;;;;;3.59;100.00;97023.06;5043167;28;20273;-85
2021/12/31 04:53:34;;;;;;;2.03;1.27;;;;;;;3.50;100.00;97021.41;5042842;28;20201;-86
2021/12/31 04:56:01;;;;;;;1.83;1.20;;;;;;;3.54;100.00;97030.78;5041258;28;20239;-86
2021/12/31 04:58:29;;;;;;;1.33;1.20;;;;;;;3.53;100.00;97038.94;5045158;28;20212;-85
2021/12/31 05:00:56;;;;;;;1.53;1.23;;;;;;;3.48;100.00;97034.13;5060925;28;20296;-85
2021/12/31 05:03:23;;;;;;;1.23;1.10;;;;;;;3.48;100.00;97038.63;5038523;28;20202;-85
2021/12/31 05:05:50;;;;;;;1.47;1.20;;;;;;;3.45;100.00;97041.63;5043513;28;20201;-85
2021/12/31 05:08:19;;;;;;;1.97;1.40;;;;;;;3.44;100.00;97040.78;5040403;28;20205;-86
2021/12/31 05:10:47;;;;;;;1.20;1.10;;;;;;;3.38;100.00;97042.31;5050754;28;20253;-85
2021/12/31 05:13:16;;;;;;;2.10;1.00;;;;;;;3.34;100.00;97048.13;5045611;28;20209;-85
2021/12/31 05:15:46;;;;;;;1.93;1.40;;;;;;;3.35;100.00;97039.13;5039757;28;20236;-85
2021/12/31 05:18:13;;;;;;;2.33;1.70;;;;;;;3.32;100.00;97037.63;5035651;28;20224;-85
2021/12/31 05:20:40;;;;;;;1.33;1.20;;;;;;;3.30;100.00;97030.81;5041703;28;20230;-85
2021/12/31 05:23:08;;;;;;;1.20;1.10;;;;;;;3.20;100.00;97030.97;5043437;28;20205;-85
2021/12/31 05:25:35;;;;;;;1.43;1.20;;;;;;;3.28;100.00;97030.13;5044752;28;20203;-86
2021/12/31 05:28:04;;;;;;;3.33;1.20;;;;;;;3.26;100.00;97030.31;5051639;28;20308;-86
2021/12/31 05:30:31;;;;;;;1.67;1.10;;;;;;;3.32;100.00;97024.28;5042314;28;20226;-86
2021/12/31 05:32:59;;;;;;;1.20;1.07;;;;;;;3.31;100.00;97022.63;5043008;28;20232;-86
2021/12/31 05:35:26;;;;;;;1.20;1.00;;;;;;;3.35;100.00;97023.94;5042806;28;20216;-86
2021/12/31 05:37:53;;;;;;;1.00;0.90;;;;;;;3.40;100.00;97015.47;5042811;28;20207;-86
2021/12/31 05:40:21;;;;;;;1.40;1.30;;;;;;;3.43;100.00;97026.59;5039932;28;20205;-86
2021/12/31 05:42:48;;;;;;;2.67;1.40;;;;;;;3.41;100.00;97027.78;5036501;28;20211;-86
2021/12/31 05:45:17;;;;;;;2.03;1.20;;;;;;;3.50;100.00;97045.44;5042132;28;20209;-86
2021/12/31 05:47:44;;;;;;;1.70;1.20;;;;;;;3.42;100.00;97026.78;5042352;28;20210;-86
2021/12/31 05:50:19;;;;;;;2.10;1.67;;;;;;;3.38;100.00;97025.47;5034060;28;20222;-86
2021/12/31 05:52:46;;;;;;;2.90;1.90;;;;;;;3.39;100.00;97045.81;5044284;28;20201;-86
2021/12/31 05:55:14;;;;;;;6.03;3.57;;;;;;;3.41;100.00;97051.78;5040254;28;20228;-85
2021/12/31 05:57:41;;;;;;;1.67;1.57;;;;;;;3.43;100.00;97042.63;5055087;28;20241;-86
2021/12/31 06:00:09;;;;;;;1.67;1.40;;;;;;;3.45;100.00;97028.28;5045213;28;20209;-86
2021/12/31 06:02:40;;;;;;;1.43;1.13;;;;;;;3.51;100.00;97046.28;5055472;28;20213;-86
2021/12/31 06:05:08;;;;;;;3.13;1.60;;;;;;;3.57;100.00;97054.47;5043232;28;20248;-86
2021/12/31 06:07:35;;;;;;;2.63;2.03;;;;;;;3.45;100.00;97061.16;5048338;28;20220;-86
2021/12/31 06:10:02;;;;;;;2.80;2.10;;;;;;;3.46;100.00;97052.16;5046759;28;20221;-86
2021/12/31 06:12:29;;;;;;;2.83;2.53;;;;;;;3.45;100.00;97049.63;5042336;28;20210;-86
2021/12/31 06:15:02;;;;;;;3.73;3.00;;;;;;;3.44;100.00;97075.50;5048066;28;20223;-85
2021/12/31 06:17:30;;;;;;;6.53;4.07;;;;;;;3.43;100.00;97073.81;5039887;28;20216;-85
2021/12/31 06:19:58;;;;;;;5.60;3.40;;;;;;;3.62;100.00;97068.13;5059968;28;20263;-84
2021/12/31 06:22:26;;;;;;;6.63;3.60;;;;;;;3.92;100.00;97077.25;5036003;28;20230;-84
2021/12/31 06:24:54;;;;;;;4.97;3.33;;;;;;;3.89;100.00;97074.09;5042417;28;20316;-84
2021/12/31 06:27:21;;;;;;;5.30;3.10;;;;;;;3.71;100.00;97087.66;5046792;28;20269;-84
2021/12/31 06:29:50;;;;;;;5.00;3.00;;;;;;;3.61;100.00;97097.69;5047444;28;20217;-85
2021/12/31 06:32:17;;;;;;;3.90;2.90;;;;;;;3.48;100.00;97082.19;5052004;28;20306;-84
2021/12/31 06:34:45;;;;;;;5.63;2.60;;;;;;;3.42;100.00;97088.19;5042793;28;20212;-85
2021/12/31 06:37:13;;;;;;;4.23;2.93;;;;;;;3.32;100.00;97087.50;5044207;28;20234;-85
2021/12/31 06:39:45;;;;;;;4.97;2.63;;;;;;;3.29;100.00;97091.38;5056029;28;20209;-85
2021/12/31 06:42:12;;;;;;;3.47;2.80;;;;;;;3.18;100.00;97085.50;5064341;28;20209;-85
2021/12/31 06:44:40;;;;;;;5.13;3.40;;;;;;;3.10;100.00;97085.50;5041567;28;20205;-85
2021/12/31 06:47:08;;;;;;;3.97;2.70;;;;;;;3.11;100.00;97100.53;5041331;28;20273;-86
2021/12/31 06:49:36;;;;;;;3.77;3.00;;;;;;;3.08;100.00;97092.84;5045415;28;20214;-85
2021/12/31 06:52:03;;;;;;;3.90;3.33;;;;;;;3.10;100.00;97089.00;5045394;28;20217;-85
2021/12/31 06:54:32;;;;;;;5.43;3.03;;;;;;;3.15;100.00;97078.66;5044351;28;20299;-86
2021/12/31 06:56:59;;;;;;;3.13;2.33;;;;;;;3.07;100.00;97067.16;5044723;28;20210;-85
2021/12/31 06:59:26;;;;;;;3.63;2.10;;;;;;;3.10;100.00;97072.16;5036527;28;20202;-86
2021/12/31 07:01:54;;;;;;;4.27;3.03;;;;;;;3.11;100.00;97065.84;5043305;28;20215;-85
2021/12/31 07:04:22;;;;;;;2.30;2.10;;;;;;;3.14;100.00;97066.34;5039606;28;20205;-85
2021/12/31 07:06:50;;;;;;;3.00;2.10;;;;;;;3.13;100.00;97064.69;5043489;28;20208;-84
2021/12/31 07:09:17;;;;;;;2.87;2.00;;;;;;;3.12;100.00;97064.84;5048230;28;20292;-85
2021/12/31 07:11:46;;;;;;;3.13;2.50;;;;;;;3.01;100.00;97063.31;5042271;28;20305;-85
2021/12/31 07:14:13;;;;;;;3.30;2.40;;;;;;;3.04;100.00;97071.00;5044429;28;20217;-86
2021/12/31 07:16:40;;;;;;;3.00;2.20;;;;;;;2.95;100.00;97058.66;5051679;28;20205;-85
2021/12/31 07:19:08;;;;;;;2.70;2.10;;;;;;;2.94;100.00;97063.16;5052459;28;20197;-85
2021/12/31 07:21:35;;;;;;;2.90;2.10;;;;;;;2.90;100.00;97061.81;5038082;28;20234;-85
2021/12/31 07:24:02;;;;;;;5.83;2.73;;;;;;;2.93;100.00;97050.81;5045782;28;20304;-85
2021/12/31 07:26:29;;;;;;;3.13;2.37;;;;;;;2.96;100.00;97055.84;5044871;28;20241;-85
2021/12/31 07:28:57;;;;;;;3.53;2.53;;;;;;;2.98;100.00;97051.13;5046220;28;20217;-86
2021/12/31 07:31:25;;;;;;;3.87;2.50;;;;;;;2.98;100.00;97040.47;5043534;28;20222;-86
2021/12/31 07:33:52;;;;;;;2.40;1.90;;;;;;;3.03;100.00;97046.16;5043184;28;20205;-85
2021/12/31 07:36:19;;;;;;;3.93;2.17;;;;;;;3.04;100.00;97049.66;5058798;28;20243;-85
2021/12/31 07:38:55;;;;;;;3.13;2.60;;;;;;;3.08;100.00;97048.31;5043534;28;20210;-85
2021/12/31 07:41:22;;;;;;;3.13;2.40;;;;;;;3.06;100.00;97045.00;5061074;28;20213;-85
2021/12/31 07:43:49;;;;;;;6.03;2.93;;;;;;;3.06;100.00;97049.50;5047011;28;20271;-85
2021/12/31 07:46:18;;;;;;;3.40;2.50;;;;;;;3.12;100.00;97039.00;5038593;28;20211;-85
2021/12/31 07:48:45;;;;;;;4.00;2.80;;;;;;;3.09;100.00;97033.97;5043331;28;20329;-84
2021/12/31 07:51:12;;;;;;;11.10;6.60;;;;;;;3.07;100.00;97027.13;5053884;28;20225;-85
2021/12/31 07:53:39;;;;;;;6.30;4.17;;;;;;;3.08;100.00;97031.47;5057691;28;20206;-86
2021/12/31 07:56:07;;;;;;;13.70;9.60;;;;;;;3.08;100.00;97047.47;5056334;28;20206;-86
2021/12/31 07:58:34;;;;;;;10.73;7.10;;;;;;;3.05;100.00;97048.66;5058391;28;20214;-85
2021/12/31 08:01:01;;;;;;;7.43;5.87;;;;;;;3.03;100.00;97038.16;5059474;28;20202;-86
2021/12/31 08:03:31;;;;;;;8.43;6.40;;;;;;;3.06;100.00;97033.50;5062677;28;20213;-86
2021/12/31 08:05:58;;;;;;;12.40;6.90;;;;;;;3.03;100.00;97040.81;5057621;28;20206;-85
2021/12/31 08:08:25;;;;;;;6.50;5.10;;;;;;;2.97;100.00;97040.66;5076746;28;20244;-85
2021/12/31 08:10:52;;;;;;;8.53;5.00;;;;;;;3.02;100.00;97032.97;5056731;28;20229;-85
2021/12/31 08:13:19;;;;;;;8.30;4.83;;;;;;;3.03;100.00;97040.81;5052124;28;20204;-84
2021/12/31 08:15:47;;;;;;;6.83;5.33;;;;;;;3.01;100.00;97042.81;5056905;28;20213;-85
2021/12/31 08:18:14;;;;;;;5.77;4.60;;;;;;;3.04;100.00;97049.66;5055035;28;20205;-85
2021/12/31 08:20:43;;;;;;;4.60;3.60;;;;;;;3.04;100.00;97052.34;5057690;28;20287;-85
2021/12/31 08:23:12;;;;;;;5.07;3.50;;;;;;;3.00;100.00;97053.66;5055762;28;20301;-85
2021/12/31 08:25:39;;;;;;;7.53;3.50;;;;;;;2.96;100.00;97057.66;5061602;28;20217;-85
2021/12/31 08:28:07;;;;;;;4.27;3.40;;;;;;;3.03;100.00;97062.16;5061338;28;20219;-85
2021/12/31 08:30:34;;;;;;;4.63;3.50;;;;;;;2.96;100.00;97061.16;5060141;28;20313;-85
2021/12/31 08:33:01;;;;;;;4.13;3.60;;;;;;;3.00;100.00;97058.97;5059571;28;20520;-84
2021/12/31 08:35:29;;;;;;;5.80;4.33;;;;;;;3.04;100.00;97065.66;5058199;28;20221;-84
2021/12/31 08:37:58;;;;;;;6.37;4.13;;;;;;;3.10;100.00;97066.84;5050750;28;20198;-84
2021/12/31 08:40:25;;;;;;;6.07;4.20;;;;;;;3.13;100.00;97070.00;5069148;28;20201;-85
2021/12/31 08:42:53;;;;;;;3.70;3.23;;;;;;;3.10;100.00;97053.50;5058958;28;20560;-85
2021/12/31 08:45:20;;;;;;;5.20;3.17;;;;;;;3.17;100.00;97065.16;5049101;28;20237;-86
2021/12/31 08:47:47;;;;;;;6.60;4.50;;;;;;;3.14;100.00;97073.53;5054441;28;20219;-85
2021/12/31 08:50:15;;;;;;;9.60;4.33;;;;;;;3.12;100.00;97064.84;5053102;28;20225;-85
2021/12/31 08:52:42;;;;;;;6.80;4.87;;;;;;;3.11;100.00;97058.66;5064145;28;20198;-85
2021/12/31 08:55:11;;;;;;;6.40;4.60;;;;;;;3.12;100.00;97048.81;5059233;28;20288;-84
2021/12/31 08:57:39;;;;;;;6.77;4.60;;;;;;;3.15;100.00;97043.16;5072759;28;20216;-85
2021/12/31 09:00:07;;;;;;;7.40;4.93;;;;;;;3.20;100.00;97047.00;5049399;28;20210;-85
2021/12/31 09:02:36;;;;;;;6.53;4.57;;;;;;;3.27;100.00;97052.47;5051303;28;20208;-85
2021/12/31 09:05:03;;;;;;;5.23;3.97;;;;;;;3.29;100.00;97055.81;5062620;28;20213;-84
2021/12/31 09:07:31;;;;;;;7.27;3.87;;;;;;;3.33;100.00;97051.81;5059283;28;20229;-84
2021/12/31 09:09:58;;;;;;;7.03;4.37;;;;;;;3.38;100.00;97054.81;5054554;28;20267;-85
2021/12/31 09:12:26;;;;;;;4.87;3.73;;;;;;;3.42;100.00;97056.13;5063051;28;20213;-84
2021/12/31 09:14:54;;;;;;;5.90;3.80;;;;;;;3.66;100.00;97069.44;5059205;28;20204;-84
2021/12/31 09:17:22;;;;;;;7.23;4.07;;;;;;;3.67;100.00;97068.44;5060582;28;20247;-85
2021/12/31 09:19:49;;;;;;;7.17;4.73;;;;;;;3.84;100.00;97050.56;5057643;28;20232;-84
2021/12/31 09:22:17;;;;;;;7.67;4.47;;;;;;;4.16;100.00;97054.97;5071814;28;20230;-85
2021/12/31 09:24:45;;;;;;;7.13;4.67;;;;;;;4.25;100.00;97064.63;5061830;28;20209;-85
2021/12/31 09:27:12;;;;;;;7.93;5.73;;;;;;;4.29;100.00;97063.25;5058279;28;20331;-85
2021/12/31 09:29:41;;;;;;;6.13;3.87;;;;;;;4.28;100.00;97066.94;5053941;28;20225;-85
2021/12/31 09:32:08;;;;;;;5.37;3.87;;;;;;;4.35;100.00;97081.28;5068231;28;20237;-85
2021/12/31 09:34:35;;;;;;;5.43;3.80;;;;;;;4.38;100.00;97086.28;5069045;28;20281;-86
2021/12/31 09:37:03;;;;;;;7.37;4.03;;;;;;;4.50;100.00;97084.06;5050787;28;20229;-85
2021/12/31 09:39:30;;;;;;;7.27;3.93;;;;;;;4.57;100.00;97093.91;5057148;28;20209;-86
2021/12/31 09:41:57;;;;;;;6.07;4.33;;;;;;;4.68;100.00;97091.84;5057874;28;20216;-86
2021/12/31 09:44:24;;;;;;;5.73;4.60;;;;;;;4.81;100.00;97092.94;5048289;28;20580;-85
2021/12/31 09:46:53;;;;;;;4.37;3.50;;;;;;;4.91;100.00;97098.91;5052343;28;20302;-85
2021/12/31 09:49:20;;;;;;;4.43;3.63;;;;;;;4.99;100.00;97110.56;5051292;28;20237;-84
2021/12/31 09:51:48;;;;;;;3.73;2.87;;;;;;;5.07;100.00;97129.25;5071638;28;20226;-84
2021/12/31 09:54:17;;;;;;;5.47;3.00;;;;;;;5.17;100.00;97128.00;5058799;28;20205;-84
2021/12/31 09:56:44;;;;;;;4.63;3.30;;;;;;;5.29;100.00;97123.88;5062196;28;20215;-84
2021/12/31 09:59:11;;;;;;;3.03;2.40;;;;;;;5.49;100.00;97131.44;5058160;28;20236;-84
2021/12/31 10:01:48;;;;;;;4.97;3.00;;;;;;;5.64;100.00;97133.16;5058753;28;20212;-84
2021/12/31 10:04:17;;;;;;;3.43;2.70;;;;;;;5.78;100.00;97139.59;5057379;28;20221;-85
2021/12/31 10:07:09;;;;;;;3.00;2.50;;;;;;;5.94;100.00;97138.66;5052247;28;20193;-85
2021/12/31 10:09:38;;;;;;;4.80;2.73;;;;;;;6.08;100.00;97138.66;5053086;28;20229;-85
2021/12/31 10:12:07;;;;;;;3.40;2.60;;;;;;;6.25;100.00;97136.63;5059626;28;20230;-86
2021/12/31 10:14:36;;;;;;;2.87;2.47;;;;;;;6.45;100.00;97136.94;5051654;28;20229;-86
2021/12/31 10:17:03;;;;;;;3.00;2.70;;;;;;;6.62;100.00;97134.88;5057880;28;20214;-85
2021/12/31 10:19:32;;;;;;;2.50;2.13;;;;;;;6.68;100.00;97134.97;5058037;28;20317;-84
2021/12/31 10:21:59;;;;;;;4.40;2.37;;;;;;;6.72;100.00;97133.56;5059406;28;20283;-86
2021/12/31 10:24:36;;;;;;;4.00;2.30;;;;;;;6.92;100.00;97146.41;5058228;28;20202;-86
2021/12/31 10:27:19;;;;;;;2.97;2.20;;;;;;;7.16;100.00;97140.69;5049084;28;20205;-87
2021/12/31 10:29:54;;;;;;;3.47;2.23;;;;;;;7.28;100.00;97122.25;5061694;28;20224;-87
2021/12/31 10:32:22;;;;;;;3.00;2.03;;;;;;;7.51;100.00;97112.97;5054485;28;20256;-87
2021/12/31 10:34:51;;;;;;;2.53;2.00;;;;;;;7.72;100.00;97114.00;5055990;28;20209;-88
2021/12/31 10:37:25;;;;;;;2.90;2.33;;;;;;;7.87;100.00;97120.13;5055754;28;20245;-88
2021/12/31 10:39:56;;;;;;;2.80;2.40;;;;;;;7.97;100.00;97107.16;5057386;28;20212;-89
2021/12/31 10:42:30;;;;;;;3.73;2.60;;;;;;;8.27;100.00;97108.59;5050277;28;20194;-89
2021/12/31 10:44:59;;;;;;;4.70;3.17;;;;;;;8.39;100.00;97097.34;5060545;28;20237;-88
2021/12/31 10:47:31;;;;;;;6.77;3.43;;;;;;;8.65;100.00;97097.47;5061689;28;20214;-89
2021/12/31 10:50:12;;;;;;;6.80;3.33;;;;;;;8.85;100.00;97094.84;5060055;28;20205;-90
2021/12/31 10:52:45;;;;;;;4.47;2.70;;;;;;;8.95;100.00;97084.53;5060294;28;20221;-88
2021/12/31 10:55:20;;;;;;;4.03;2.80;;;;;;;9.16;100.00;97076.31;5061498;28;20205;-90
2021/12/31 10:57:50;;;;;;;5.57;2.10;;;;;;;9.41;100.00;97074.72;5065842;28;20205;-89
2021/12/31 11:00:19;;;;;;;3.73;2.57;;;;;;;9.58;100.00;97083.22;5061884;28;20221;-89
2021/12/31 11:02:47;;;;;;;3.13;2.40;;;;;;;9.74;100.00;97063.13;5054975;28;20229;-89
2021/12/31 11:05:18;;;;;;;2.43;2.03;;;;;;;10.06;100.00;97045.25;5063713;28;20216;-89
2021/12/31 11:07:49;;;;;;;2.57;1.93;;;;;;;10.42;100.00;97051.00;5057100;28;20223;-89
2021/12/31 11:10:17;;;;;;;2.97;2.07;;;;;;;10.69;98.78;97067.97;5047665;28;20210;-88
2021/12/31 11:12:47;;;;;;;6.17;2.33;;;;;;;10.96;98.55;97079.50;5063420;28;20233;-90
2021/12/31 11:15:16;;;;;;;3.83;1.90;;;;;;;10.99;93.82;97068.25;5073149;28;20198;-89
2021/12/31 11:17:43;;;;;;;2.20;2.00;;;;;;;11.09;94.86;97060.50;5061586;28;20237;-90
2021/12/31 11:20:12;;;;;;;2.97;2.30;;;;;;;11.28;93.49;97048.75;5056383;28;20206;-89
2021/12/31 11:22:41;;;;;;;2.73;2.17;;;;;;;11.54;92.22;97041.50;5059116;28;20297;-86
2021/12/31 11:25:24;;;;;;;3.70;2.50;;;;;;;11.69;91.76;97031.19;5058800;28;20206;-85
2021/12/31 11:27:56;;;;;;;4.47;2.13;;;;;;;12.25;92.09;97046.56;5056580;28;20274;-85
2021/12/31 11:31:15;;;;;;;2.00;1.80;;;;;;;12.53;86.21;97030.59;5063146;28;20209;-93
2021/12/31 11:34:15;;;;;;;4.57;2.37;;;;;;;12.63;87.08;97033.63;5036353;28;20205;-91
2021/12/31 11:36:52;;;;;;;6.70;3.90;;;;;;;12.81;88.00;97033.59;5059369;28;20257;-91
2021/12/31 11:39:55;;;;;;;7.17;2.70;;;;;;;12.69;82.95;97013.72;5072451;28;20205;-91
2021/12/31 11:43:17;;;;;;;3.03;2.40;;;;;;;12.49;86.97;97016.69;5058806;28;20226;-91